YSNW/NOA METAR and TAF weather

Enter ICAO airport designator
Station Type Date Time Source
YSNW METAR 2019/12/11 12:00 UTC NOAA

YSNW 111200Z 19001KT 9999 -DZ BKN022 BKN029 16/13 Q1016 NOSIG


Station Type Date Time Source
YSNW Decoded METAR 2019/12/11 12:00 UTC NOAA

Nowra Ran Air Station, Australia (YSNW) 34-57S 150-32E 110M
Dec 11, 2019 - 07:00 AM EST / 2019.12.11 1200 UTC
Wind: from the S (190 degrees) at 1 MPH (1 KT):0
Visibility: greater than 7 mile(s):0
Sky conditions: mostly cloudy
Weather: light drizzle
Temperature: 60 F (16 C)
Dew Point: 55 F (13 C)
Relative Humidity: 82%
Pressure (altimeter): 30.00 in. Hg (1016 hPa)
ob: YSNW 111200Z 19001KT 9999 -DZ BKN022 BKN029 16/13 Q1016 NOSIG
cycle: 12

Station Type Date Time Source
YSNW TAF UTC NOAA

Error!

Example: see airport list